createdAt,value
2018-09-11T00:00:40.628Z,94.70
2018-09-11T00:03:09.191Z,94.70
2018-09-11T00:05:39.779Z,94.90
2018-09-11T00:08:08.398Z,95.10
2018-09-11T00:10:36.648Z,95.30
2018-09-11T00:13:04.787Z,95.40
2018-09-11T00:15:37.568Z,95.50
2018-09-11T00:18:05.911Z,95.60
2018-09-11T00:20:34.450Z,95.80
2018-09-11T00:23:02.989Z,95.80
2018-09-11T00:25:37.427Z,96.00
2018-09-11T00:29:47.377Z,96.20
2018-09-11T00:32:15.771Z,96.80
2018-09-11T00:34:50.926Z,96.50
2018-09-11T00:37:19.310Z,96.80
2018-09-11T00:39:47.631Z,97.00
2018-09-11T00:42:16.231Z,97.20
2018-09-11T00:44:48.823Z,97.30
2018-09-11T00:47:17.200Z,97.40
2018-09-11T00:49:45.609Z,97.50
2018-09-11T00:52:13.989Z,97.60
2018-09-11T00:54:44.331Z,97.80
2018-09-11T00:57:12.713Z,97.70
2018-09-11T00:59:40.925Z,97.80
2018-09-11T01:02:09.328Z,98.00
2018-09-11T01:04:42.758Z,98.20
2018-09-11T01:07:11.285Z,98.20
2018-09-11T01:09:39.778Z,98.30
2018-09-11T01:12:08.258Z,98.40
2018-09-11T01:14:36.760Z,98.40
2018-09-11T01:17:05.152Z,98.10
2018-09-11T01:19:33.458Z,98.50
2018-09-11T01:22:01.648Z,98.80
2018-09-11T01:24:37.302Z,98.50
2018-09-11T01:27:05.716Z,98.50
2018-09-11T01:29:34.233Z,98.40
2018-09-11T01:32:16.704Z,98.60
2018-09-11T01:34:45.141Z,98.70
2018-09-11T01:37:13.648Z,98.80
2018-09-11T01:39:43.162Z,98.80
2018-09-11T01:42:11.785Z,98.90
2018-09-11T01:44:40.481Z,99.10
2018-09-11T01:47:20.624Z,99.10
2018-09-11T01:49:48.921Z,99.10
2018-09-11T01:52:17.438Z,99.00
2018-09-11T01:54:45.801Z,99.10
2018-09-11T01:57:14.331Z,99.20
2018-09-11T01:59:42.729Z,99.50
2018-09-11T02:02:11.245Z,99.40
2018-09-11T02:04:39.545Z,99.60
2018-09-11T02:07:08.147Z,99.50
2018-09-11T02:09:36.442Z,99.60
2018-09-11T02:12:04.850Z,99.70
2018-09-11T02:14:33.244Z,99.90
2018-09-11T02:17:02.766Z,99.90
2018-09-11T02:19:31.146Z,99.90
2018-09-11T02:21:59.328Z,99.90
2018-09-11T02:24:27.872Z,99.90
2018-09-11T02:27:07.114Z,99.90
2018-09-11T02:29:35.404Z,99.90
2018-09-11T02:32:03.992Z,99.90
2018-09-11T02:34:32.307Z,99.90
2018-09-11T02:37:06.424Z,99.90
2018-09-11T02:39:34.934Z,99.90
2018-09-11T02:42:03.429Z,99.90
2018-09-11T02:44:31.968Z,99.90
2018-09-11T02:47:02.589Z,99.90
2018-09-11T02:49:30.754Z,99.90
2018-09-11T02:51:59.500Z,99.90
2018-09-11T02:54:30.128Z,99.90
2018-09-11T02:56:58.331Z,99.90
2018-09-11T02:59:26.727Z,99.90
2018-09-11T03:01:56.223Z,99.90
2018-09-11T03:04:24.532Z,99.90
2018-09-11T03:06:52.936Z,99.90
2018-09-11T03:09:21.454Z,99.90
2018-09-11T03:12:07.239Z,99.90
2018-09-11T03:14:35.522Z,99.90
2018-09-11T03:17:04.025Z,99.90
2018-09-11T03:19:32.662Z,99.90
2018-09-11T03:22:04.454Z,99.90
2018-09-11T03:24:32.833Z,99.90
2018-09-11T03:27:01.203Z,99.90
2018-09-11T03:29:29.492Z,99.90
2018-09-11T03:31:59.923Z,99.90
2018-09-11T03:34:28.348Z,99.90
2018-09-11T03:36:56.856Z,99.90
2018-09-11T03:39:25.267Z,99.90
2018-09-11T03:41:54.754Z,99.90
2018-09-11T03:44:23.281Z,99.90
2018-09-11T03:46:51.587Z,99.90
2018-09-11T03:49:20.733Z,99.90
2018-09-11T03:51:50.021Z,99.90
2018-09-11T03:54:18.742Z,99.90
2018-09-11T03:56:47.132Z,99.90
2018-09-11T03:59:15.656Z,99.90
2018-09-11T04:01:50.267Z,99.90
2018-09-11T04:04:18.662Z,99.90
2018-09-11T04:06:47.125Z,99.90
2018-09-11T04:09:15.466Z,99.90
2018-09-11T04:11:50.210Z,99.90
2018-09-11T04:14:19.274Z,99.90
2018-09-11T04:16:47.694Z,99.90
2018-09-11T04:19:15.999Z,99.90
2018-09-11T04:21:49.509Z,99.90
2018-09-11T04:24:17.921Z,99.90
2018-09-11T04:26:46.537Z,99.90
2018-09-11T04:29:16.460Z,99.90
2018-09-11T04:31:45.061Z,99.90
2018-09-11T04:34:13.687Z,99.90
2018-09-11T04:36:42.169Z,99.90
2018-09-11T04:39:15.757Z,99.90
2018-09-11T04:41:44.176Z,99.90
2018-09-11T04:44:12.475Z,99.90
2018-09-11T04:46:45.396Z,99.90
2018-09-11T04:49:13.596Z,99.90
2018-09-11T04:51:41.854Z,99.90
2018-09-11T04:54:11.618Z,99.90
2018-09-11T04:56:39.979Z,99.90
2018-09-11T04:59:08.318Z,99.90
2018-09-11T05:01:37.015Z,99.90
2018-09-11T05:04:05.624Z,99.90
2018-09-11T05:06:34.030Z,99.90
2018-09-11T05:09:03.873Z,99.90
2018-09-11T05:11:32.198Z,99.90
2018-09-11T05:14:00.444Z,99.90
2018-09-11T05:16:28.951Z,99.90
2018-09-11T05:19:02.486Z,99.90
2018-09-11T05:21:30.757Z,99.90
2018-09-11T05:23:59.147Z,99.90
2018-09-11T05:26:27.660Z,99.90
2018-09-11T05:28:56.030Z,99.90
2018-09-11T05:31:24.341Z,99.90
2018-09-11T05:33:52.755Z,99.90
2018-09-11T05:36:21.134Z,99.90
2018-09-11T05:38:56.675Z,99.90
2018-09-11T05:41:24.928Z,99.90
2018-09-11T05:43:53.467Z,99.90
2018-09-11T05:46:21.790Z,99.90
2018-09-11T05:48:53.782Z,99.90
2018-09-11T05:51:22.518Z,99.90
2018-09-11T05:53:51.000Z,99.90
2018-09-11T05:56:20.326Z,99.90
2018-09-11T05:58:48.764Z,99.90
2018-09-11T06:01:17.124Z,99.90
2018-09-11T06:03:45.413Z,99.90
2018-09-11T06:06:15.216Z,99.90
2018-09-11T06:08:43.788Z,99.90
2018-09-11T06:11:12.145Z,99.90
2018-09-11T06:13:40.351Z,99.90
2018-09-11T06:16:08.745Z,99.90
2018-09-11T06:18:37.241Z,99.10
2018-09-11T06:21:06.043Z,98.80
2018-09-11T06:23:35.097Z,98.20
2018-09-11T06:26:04.610Z,96.90
2018-09-11T06:28:33.798Z,96.00
2018-09-11T06:31:02.298Z,94.90
2018-09-11T06:33:31.493Z,93.30
2018-09-11T06:36:00.521Z,92.00
2018-09-11T06:38:29.157Z,91.10
2018-09-11T06:40:58.940Z,90.20
2018-09-11T06:43:31.270Z,88.40
2018-09-11T06:46:00.418Z,85.50
2018-09-11T06:48:29.260Z,83.00
2018-09-11T06:50:58.393Z,81.90
2018-09-11T06:53:27.343Z,82.30
2018-09-11T06:55:56.093Z,82.50
2018-09-11T06:58:25.889Z,81.90
2018-09-11T07:00:55.201Z,81.80
2018-09-11T07:03:24.313Z,82.10
2018-09-11T07:05:54.091Z,82.30
2018-09-11T07:08:22.901Z,82.30
2018-09-11T07:10:51.874Z,82.90
2018-09-11T07:13:21.101Z,82.20
2018-09-11T07:15:49.976Z,73.20
2018-09-11T07:18:19.661Z,66.90
2018-09-11T07:20:48.996Z,64.30
2018-09-11T07:23:17.905Z,59.70
2018-09-11T07:25:46.644Z,55.80
2018-09-11T07:28:15.521Z,54.80
2018-09-11T07:30:44.373Z,55.00
2018-09-11T07:33:13.852Z,56.00
2018-09-11T07:35:43.089Z,57.70
2018-09-11T07:38:13.014Z,56.20
2018-09-11T07:40:42.034Z,52.60
2018-09-11T07:43:10.358Z,48.60
2018-09-11T07:45:39.018Z,45.00
2018-09-11T07:48:09.314Z,41.70
2018-09-11T07:50:38.282Z,39.20
2018-09-11T07:53:07.234Z,36.20
2018-09-11T07:55:36.204Z,34.60
2018-09-11T07:58:05.393Z,33.60
2018-09-11T08:00:34.818Z,32.70
2018-09-11T08:03:04.249Z,32.80
2018-09-11T08:05:33.350Z,32.70
2018-09-11T08:08:02.399Z,32.70
2018-09-11T08:10:31.474Z,32.40
2018-09-11T08:13:00.438Z,31.90
2018-09-11T08:15:29.175Z,31.70
2018-09-11T08:17:57.736Z,31.20
2018-09-11T08:20:26.991Z,30.50
2018-09-11T08:22:56.333Z,29.80
2018-09-11T08:25:26.460Z,29.30
2018-09-11T08:27:55.585Z,29.20
2018-09-11T08:30:26.173Z,29.30
2018-09-11T08:32:56.496Z,29.80
2018-09-11T08:35:26.389Z,29.40
2018-09-11T08:37:56.160Z,29.30
2018-09-11T08:40:25.432Z,29.70
2018-09-11T08:42:54.343Z,30.00
2018-09-11T08:45:23.355Z,30.60
2018-09-11T08:47:53.846Z,31.50
2018-09-11T08:50:23.118Z,32.50
2018-09-11T08:52:52.587Z,33.30
2018-09-11T08:55:21.149Z,35.00
2018-09-11T08:57:50.786Z,36.90
2018-09-11T09:00:19.778Z,39.10
2018-09-11T09:02:49.003Z,40.80
2018-09-11T09:05:19.539Z,42.00
2018-09-11T09:07:48.223Z,42.80
2018-09-11T09:10:17.348Z,43.60
2018-09-11T09:12:46.035Z,44.10
2018-09-11T09:15:15.964Z,44.60
2018-09-11T09:17:45.585Z,45.50
2018-09-11T09:20:15.661Z,45.70
2018-09-11T09:22:45.565Z,45.80
2018-09-11T09:25:14.678Z,46.30
2018-09-11T09:27:43.441Z,46.10
2018-09-11T09:30:12.193Z,46.30
2018-09-11T09:32:40.939Z,46.50
2018-09-11T09:35:10.034Z,46.80
2018-09-11T09:37:38.746Z,47.10
2018-09-11T09:40:07.618Z,47.40
2018-09-11T09:42:36.944Z,47.10
2018-09-11T09:45:06.955Z,46.50
2018-09-11T09:47:36.518Z,46.40
2018-09-11T09:50:05.490Z,46.20
2018-09-11T09:52:34.370Z,45.90
2018-09-11T09:55:04.288Z,45.30
2018-09-11T09:57:33.452Z,46.20
2018-09-11T10:00:02.429Z,45.90
2018-09-11T10:02:31.035Z,46.50
2018-09-11T10:05:00.342Z,45.50
2018-09-11T10:07:29.414Z,45.40
2018-09-11T10:09:58.711Z,44.50
2018-09-11T10:12:27.878Z,43.80
2018-09-11T10:14:56.885Z,43.70
2018-09-11T10:17:26.482Z,43.60
2018-09-11T10:19:55.784Z,43.30
2018-09-11T10:22:24.462Z,43.20
2018-09-11T10:24:53.309Z,43.10
2018-09-11T10:27:22.778Z,42.60
2018-09-11T10:29:51.881Z,41.90
2018-09-11T10:32:20.877Z,41.40
2018-09-11T10:34:50.170Z,41.20
2018-09-11T10:37:18.914Z,41.70
2018-09-11T10:39:47.477Z,42.00
2018-09-11T10:42:16.863Z,42.10
2018-09-11T10:44:45.963Z,42.30
2018-09-11T10:47:15.727Z,42.30
2018-09-11T10:49:44.700Z,41.00
2018-09-11T10:52:14.149Z,40.60
2018-09-11T10:54:43.171Z,40.70
2018-09-11T10:57:12.091Z,40.80
2018-09-11T10:59:41.097Z,40.30
2018-09-11T11:02:10.323Z,40.60
2018-09-11T11:04:39.321Z,41.60
2018-09-11T11:07:09.597Z,41.20
2018-09-11T11:09:38.818Z,41.20
2018-09-11T11:12:07.807Z,41.00
2018-09-11T11:14:36.630Z,40.70
2018-09-11T11:17:05.334Z,40.80
2018-09-11T11:19:34.143Z,40.70
2018-09-11T11:22:02.545Z,41.00
2018-09-11T11:24:32.056Z,40.90
2018-09-11T11:29:31.314Z,40.40
2018-09-11T11:31:59.716Z,39.90
2018-09-11T11:34:28.216Z,39.80
2018-09-11T11:36:56.631Z,40.20
2018-09-11T11:39:24.753Z,40.10
2018-09-11T11:41:52.963Z,39.80
2018-09-11T11:44:21.428Z,39.70
2018-09-11T11:46:49.881Z,39.10
2018-09-11T11:49:18.401Z,38.80
2018-09-11T11:51:46.910Z,38.50
2018-09-11T11:54:15.421Z,38.30
2018-09-11T11:56:44.017Z,38.30
2018-09-11T11:59:12.647Z,38.30
2018-09-11T12:01:41.207Z,38.40
2018-09-11T12:04:09.830Z,38.70
2018-09-11T12:06:38.919Z,39.10
2018-09-11T12:09:09.126Z,39.30
2018-09-11T12:11:37.384Z,38.90
2018-09-11T12:14:05.864Z,38.80
2018-09-11T12:16:34.382Z,38.20
2018-09-11T12:19:02.785Z,38.40
2018-09-11T12:21:31.394Z,37.90
2018-09-11T12:23:59.826Z,37.90
2018-09-11T12:26:28.117Z,37.70
2018-09-11T12:28:56.675Z,38.00
2018-09-11T12:31:25.201Z,38.10
2018-09-11T12:33:53.674Z,36.20
2018-09-11T12:36:22.109Z,35.60
2018-09-11T12:38:50.674Z,36.10
2018-09-11T12:41:19.077Z,36.60
2018-09-11T12:43:47.504Z,36.00
2018-09-11T12:46:15.891Z,35.80
2018-09-11T12:48:44.113Z,36.00
2018-09-11T12:51:12.481Z,35.90
2018-09-11T12:53:41.003Z,36.20
2018-09-11T12:56:09.503Z,36.40
2018-09-11T12:58:38.100Z,37.20
2018-09-11T13:01:06.619Z,37.40
2018-09-11T13:03:34.903Z,37.60
2018-09-11T13:06:03.509Z,37.70
2018-09-11T13:08:32.118Z,38.10
2018-09-11T13:11:00.732Z,38.50
2018-09-11T13:13:29.301Z,38.80
2018-09-11T13:15:57.738Z,38.70
2018-09-11T13:18:26.210Z,38.30
2018-09-11T13:20:55.149Z,38.30
2018-09-11T13:23:24.159Z,38.50
2018-09-11T13:25:52.855Z,38.40
2018-09-11T13:28:22.185Z,37.70
2018-09-11T13:30:50.614Z,37.50
2018-09-11T13:33:19.282Z,37.60
2018-09-11T13:35:47.812Z,37.80
2018-09-11T13:38:16.305Z,37.60
2018-09-11T13:40:45.097Z,37.80
2018-09-11T13:43:13.716Z,38.00
2018-09-11T13:45:46.743Z,38.60
2018-09-11T13:48:15.751Z,39.10
2018-09-11T13:50:44.459Z,38.90
2018-09-11T13:53:13.042Z,38.90
2018-09-11T13:55:41.730Z,38.90
2018-09-11T13:58:10.384Z,39.40
2018-09-11T14:00:38.856Z,39.70
2018-09-11T14:03:07.559Z,39.80
2018-09-11T14:05:36.454Z,40.10
2018-09-11T14:08:05.161Z,40.10
2018-09-11T14:10:33.680Z,39.60
2018-09-11T14:13:02.174Z,40.30
2018-09-11T14:15:30.780Z,40.00
2018-09-11T14:17:59.304Z,40.10
2018-09-11T14:20:28.277Z,40.30
2018-09-11T14:22:58.009Z,40.50
2018-09-11T14:25:27.797Z,40.60
2018-09-11T14:27:58.523Z,40.70
2018-09-11T14:30:29.436Z,40.50
2018-09-11T14:32:59.124Z,40.20
2018-09-11T14:35:29.158Z,40.40
2018-09-11T14:37:59.082Z,40.70
2018-09-11T14:40:28.814Z,40.80
2018-09-11T14:42:58.665Z,40.40
2018-09-11T14:45:28.328Z,40.30
2018-09-11T14:47:58.863Z,40.50
2018-09-11T14:50:29.648Z,40.60
2018-09-11T14:52:59.151Z,40.20
2018-09-11T14:55:28.718Z,40.10
2018-09-11T14:57:58.009Z,40.80
2018-09-11T15:00:27.698Z,40.30
2018-09-11T15:02:58.703Z,39.80
2018-09-11T15:05:28.701Z,40.00
2018-09-11T15:07:58.172Z,39.80
2018-09-11T15:10:27.872Z,40.40
2018-09-11T15:12:57.262Z,40.10
2018-09-11T15:15:26.745Z,40.00
2018-09-11T15:17:57.240Z,39.80
2018-09-11T15:20:26.515Z,40.00
2018-09-11T15:22:56.135Z,40.30
2018-09-11T15:25:25.951Z,39.90
2018-09-11T15:27:55.450Z,40.20
2018-09-11T15:30:26.753Z,40.30
2018-09-11T15:32:56.444Z,40.50
2018-09-11T15:35:29.721Z,40.10
2018-09-11T15:37:59.856Z,40.00
2018-09-11T15:40:29.384Z,40.50
2018-09-11T15:42:59.114Z,40.10
2018-09-11T15:45:29.135Z,40.10
2018-09-11T15:47:58.749Z,40.50
2018-09-11T15:50:28.996Z,40.80
2018-09-11T15:52:58.992Z,40.90
2018-09-11T15:55:29.042Z,41.40
2018-09-11T15:57:59.099Z,41.10
2018-09-11T16:00:28.728Z,41.20
2018-09-11T16:02:58.265Z,41.30
2018-09-11T16:05:28.507Z,41.30
2018-09-11T16:07:58.392Z,41.40
2018-09-11T16:10:28.087Z,41.00
2018-09-11T16:13:01.580Z,41.50
2018-09-11T16:15:31.104Z,41.60
2018-09-11T16:18:00.861Z,41.90
2018-09-11T16:20:30.432Z,42.00
2018-09-11T16:22:59.825Z,42.30
2018-09-11T16:25:29.489Z,42.60
2018-09-11T16:27:59.261Z,42.90
2018-09-11T16:30:28.901Z,43.20
2018-09-11T16:32:58.635Z,43.50
2018-09-11T16:35:28.686Z,43.60
2018-09-11T16:37:58.254Z,43.40
2018-09-11T16:40:27.867Z,43.50
2018-09-11T16:42:58.131Z,43.80
2018-09-11T16:45:27.664Z,44.00
2018-09-11T16:47:57.284Z,44.20
2018-09-11T16:50:26.815Z,44.20
2018-09-11T16:52:56.845Z,44.10
2018-09-11T16:55:26.548Z,44.10
2018-09-11T16:57:56.241Z,44.10
2018-09-11T17:00:26.725Z,44.00
2018-09-11T17:02:57.715Z,43.90
2018-09-11T17:05:27.324Z,43.80
2018-09-11T17:07:57.054Z,43.80
2018-09-11T17:10:26.870Z,43.70
2018-09-11T17:12:59.316Z,43.90
2018-09-11T17:15:29.286Z,44.10
2018-09-11T17:17:59.559Z,44.20
2018-09-11T17:20:29.058Z,44.50
2018-09-11T17:22:58.977Z,44.80
2018-09-11T17:25:28.655Z,45.00
2018-09-11T17:27:58.331Z,45.30
2018-09-11T17:30:27.967Z,45.70
2018-09-11T17:32:57.747Z,46.10
2018-09-11T17:35:27.773Z,46.50
2018-09-11T17:37:57.401Z,46.80
2018-09-11T17:40:27.202Z,47.70
2018-09-11T17:42:57.464Z,49.30
2018-09-11T17:45:30.877Z,49.40
2018-09-11T17:48:00.740Z,50.00
2018-09-11T17:50:30.444Z,50.40
2018-09-11T17:52:59.924Z,50.80
2018-09-11T17:55:29.680Z,51.20
2018-09-11T17:57:59.609Z,51.60
2018-09-11T18:00:29.431Z,52.70
2018-09-11T18:03:04.470Z,52.60
2018-09-11T18:05:34.349Z,53.10
2018-09-11T18:08:04.058Z,53.50
2018-09-11T18:10:34.563Z,54.00
2018-09-11T18:13:04.248Z,54.30
2018-09-11T18:15:34.540Z,54.60
2018-09-11T18:18:04.484Z,54.90
2018-09-11T18:20:34.604Z,55.20
2018-09-11T18:23:04.600Z,55.70
2018-09-11T18:25:34.974Z,56.40
2018-09-11T18:28:05.785Z,56.50
2018-09-11T18:30:36.843Z,56.20
2018-09-11T18:33:06.997Z,56.90
2018-09-11T18:35:37.840Z,55.80
2018-09-11T18:38:08.038Z,55.90
2018-09-11T18:40:38.041Z,56.00
2018-09-11T18:43:07.565Z,55.50
2018-09-11T18:45:37.104Z,55.20
2018-09-11T18:48:06.772Z,55.30
2018-09-11T18:50:36.578Z,55.80
2018-09-11T18:53:07.929Z,56.10
2018-09-11T18:55:38.120Z,56.60
2018-09-11T18:58:08.042Z,56.80
2018-09-11T19:00:37.556Z,57.10
2018-09-11T19:03:07.356Z,57.50
2018-09-11T19:05:37.282Z,57.90
2018-09-11T19:08:06.813Z,58.50
2018-09-11T19:10:36.652Z,58.70
2018-09-11T19:13:06.383Z,59.00
2018-09-11T19:15:37.065Z,59.20
2018-09-11T19:18:06.575Z,59.50
2018-09-11T19:20:37.554Z,59.90
2018-09-11T19:23:06.813Z,60.30
2018-09-11T19:25:36.390Z,60.80
2018-09-11T19:28:05.679Z,61.30
2018-09-11T19:30:35.129Z,61.70
2018-09-11T19:33:05.047Z,62.30
2018-09-11T19:35:35.411Z,62.10
2018-09-11T19:38:05.090Z,61.80
2018-09-11T19:40:35.324Z,60.60
2018-09-11T19:43:06.466Z,60.50
2018-09-11T19:45:35.833Z,60.50
2018-09-11T19:48:06.016Z,60.40
2018-09-11T19:50:35.766Z,60.60
2018-09-11T19:53:07.514Z,60.00
2018-09-11T19:55:37.397Z,59.50
2018-09-11T19:58:07.415Z,59.30
2018-09-11T20:00:37.871Z,58.80
2018-09-11T20:03:07.225Z,58.40
2018-09-11T20:05:36.583Z,58.30
2018-09-11T20:08:06.499Z,58.10
2018-09-11T20:10:36.365Z,58.10
2018-09-11T20:13:06.024Z,58.10
2018-09-11T20:15:39.619Z,58.60
2018-09-11T20:18:09.750Z,59.10
2018-09-11T20:20:40.034Z,59.50
2018-09-11T20:23:13.592Z,60.20
2018-09-11T20:25:43.451Z,60.60
2018-09-11T20:28:13.118Z,60.80
2018-09-11T20:30:43.226Z,61.30
2018-09-11T20:33:13.236Z,61.80
2018-09-11T20:35:42.554Z,62.00
2018-09-11T20:38:12.349Z,62.30
2018-09-11T20:40:41.959Z,62.60
2018-09-11T20:43:11.996Z,62.70
2018-09-11T20:45:41.536Z,63.00
2018-09-11T20:48:15.564Z,63.70
2018-09-11T20:50:45.426Z,64.00
2018-09-11T20:53:15.304Z,64.50
2018-09-11T20:55:45.049Z,65.10
2018-09-11T20:58:14.657Z,65.50
2018-09-11T21:00:44.505Z,65.90
2018-09-11T21:03:13.841Z,67.00
2018-09-11T21:05:43.484Z,66.50
2018-09-11T21:08:14.267Z,67.10
2018-09-11T21:10:43.413Z,67.50
2018-09-11T21:13:13.408Z,67.90
2018-09-11T21:15:43.575Z,68.30
2018-09-11T21:18:16.659Z,68.80
2018-09-11T21:20:46.555Z,69.10
2018-09-11T21:23:16.558Z,69.60
2018-09-11T21:25:46.304Z,70.00
2018-09-11T21:28:16.390Z,70.60
2018-09-11T21:30:45.969Z,70.80
2018-09-11T21:33:16.216Z,70.80
2018-09-11T21:35:45.690Z,70.70
2018-09-11T21:38:19.258Z,70.80
2018-09-11T21:40:49.098Z,71.60
2018-09-11T21:43:18.871Z,70.70
2018-09-11T21:45:52.439Z,70.90
2018-09-11T21:48:25.736Z,71.10
2018-09-11T21:50:55.411Z,71.20
2018-09-11T21:53:25.385Z,71.40
2018-09-11T21:55:55.581Z,71.70
2018-09-11T21:58:25.649Z,72.00
2018-09-11T22:01:00.195Z,72.50
2018-09-11T22:03:29.872Z,72.70
2018-09-11T22:05:59.268Z,73.00
2018-09-11T22:08:28.824Z,73.40
2018-09-11T22:10:59.318Z,73.70
2018-09-11T22:13:28.708Z,73.90
2018-09-11T22:15:58.586Z,74.10
2018-09-11T22:18:28.249Z,74.10
2018-09-11T22:20:59.989Z,74.20
2018-09-11T22:23:29.797Z,74.40
2018-09-11T22:25:59.248Z,74.70
2018-09-11T22:28:29.092Z,75.20
2018-09-11T22:30:58.467Z,75.80
2018-09-11T22:33:28.338Z,76.20
2018-09-11T22:36:01.551Z,76.60
2018-09-11T22:38:31.143Z,77.00
2018-09-11T22:41:00.855Z,77.30
2018-09-11T22:43:30.437Z,77.50
2018-09-11T22:46:00.157Z,78.10
2018-09-11T22:48:29.701Z,78.00
2018-09-11T22:50:59.183Z,78.70
2018-09-11T22:53:28.967Z,79.20
2018-09-11T22:55:58.484Z,79.70
2018-09-11T22:58:30.122Z,80.00
2018-09-11T23:00:59.756Z,80.30
2018-09-11T23:03:29.614Z,81.00
2018-09-11T23:05:59.113Z,81.20
2018-09-11T23:08:29.118Z,81.40
2018-09-11T23:10:58.923Z,81.60
2018-09-11T23:13:28.595Z,82.00
2018-09-11T23:15:58.185Z,82.30
2018-09-11T23:18:27.508Z,82.50
2018-09-11T23:20:57.487Z,82.80
2018-09-11T23:23:29.562Z,83.10
2018-09-11T23:25:59.345Z,83.30
2018-09-11T23:28:29.353Z,83.60
2018-09-11T23:30:58.603Z,83.90
2018-09-11T23:33:28.154Z,84.10
2018-09-11T23:35:58.121Z,84.20
2018-09-11T23:38:27.833Z,84.40
2018-09-11T23:40:57.426Z,84.70
2018-09-11T23:43:30.694Z,85.00
2018-09-11T23:46:00.275Z,85.40
2018-09-11T23:48:29.803Z,85.70
2018-09-11T23:51:00.360Z,86.00
2018-09-11T23:53:30.232Z,86.30
2018-09-11T23:55:59.783Z,86.50
2018-09-11T23:58:29.115Z,86.80
